Aviation Digital Data Service (ADDS)

Output produced by METARs form (2344 UTC 03 July 2015)
found at http://aviationweather.gov/adds/metars/
 
KALB 032337Z 0400/0424 VRB03KT P6SM SCT120 BKN250 
     FM041000 00000KT P6SM VCSH SCT060 OVC120 
     FM041400 VRB04KT P6SM -SHRA SCT030 OVC050